No Warnings, Watches, or Advisories

Active alerts


No alerts

Amazon Weather

Hours of Daylight

9 hrs 15 min 25 sec
of Daylight Today
38.5% Day 61.5% Night Which is 29 sec Shorter
Than Yesterday

South Webcam more information South Webcam


NorthWest Webcam more information NorthWest Webcam


You find our weather info also at:

UK Metoffice

Weather Underground

Mid-Atlantic Weather Network

WeatherlinkIP

Citizen Weather Observer Program (CWOP)

HAMweather, WeatherForYou, PWS Weather



Nearby METAR Reports

   
KDUJ - Du Bois, Pennsylvania, USA
Distance from station: NNE 16 mi
Updated: Dec 14 2019 4:53 am
Fog, Overcast  
Fog, Overcast  
   Wind: East 6.9 mph
Wind: East 6.9 mph
Temperature: 37.4°F
Wind Chill: 32°F
Dew Point: 35.6°F
Humidity: 93%
Barometer: 29.54 inHg
Clouds: Overcast
Visibility: 1 mi
Cloud details: Overcast 400 ft
KDUJ 140953Z AUTO 08006KT 1/2SM FG VV004 03/02 A2954 RMK AO2 UPB0857E44 SLP015 P0003 T00280022
KIDI - Indiana/Stewart, Pennsylvania, USA
Distance from station: SSW 23 mi
Updated: Dec 14 2019 5:15 am
Overcast  
Overcast  
   Wind: East 6.9 mph
Wind: East 6.9 mph
Temperature: 39.2°F
Wind Chill: 33.8°F
Dew Point: 39.2°F
Humidity: 100%
Barometer: 29.55 inHg
Clouds: Overcast
Visibility: 10 mi
Cloud details: Overcast 3200 ft
KIDI 141015Z AUTO 08006KT 10SM OVC032 04/04 A2955 RMK A01
KFIG - Clearfield, Pennsylvania, USA
Distance from station: ENE 31 mi
Updated: Dec 14 2019 5:22 am
Fog, Overcast  
Fog, Overcast  
   Wind: North 4.6 mph
Wind: North 4.6 mph
Temperature: 35.6°F
Wind Chill: 32°F
Dew Point: 33.8°F
Humidity: 93%
Barometer: 29.55 inHg
Clouds: Overcast
Visibility: 1 mi
Cloud details: Overcast 400 ft
KFIG 141022Z AUTO 36004KT 1/2SM FG VV004 02/01 A2955 RMK AO2 RAE0955UPB0955E13 P0000 T00170011
KJST - Johnstown, Pennsylvania, USA
Distance from station: S 44 mi
Updated: Dec 14 2019 5:20 am
Mist, Overcast  
Mist, Overcast  
   Wind: Calm
Wind: Calm
Temperature: 39.2°F
Dew Point: 37.4°F
Humidity: 93%
Barometer: 29.51 inHg
Clouds: Overcast
Visibility: 3 mi
Cloud details: Few Clouds 600 ft,
Overcast 1600 ft
KJST 141020Z AUTO 00000KT 3SM BR FEW006 OVC016 04/03 A2951 RMK AO2 RAB04E13 P0000 T00440033 $
KPIT - Pittsburgh, Pennsylvania, USA
Distance from station: WSW 74 mi
Updated: Dec 14 2019 5:01 am
Light Rain, Mist, Overcast  
Light Rain, Mist, Overcast  
   Wind: North 4.6 mph
Wind: North 4.6 mph
Temperature: 39.2°F
Wind Chill: 35.6°F
Dew Point: 37.4°F
Humidity: 93%
Barometer: 29.53 inHg
Clouds: Overcast
Visibility: 1 mi
Cloud details: Overcast 200 ft
KPIT 141001Z 01004KT 1/2SM R28R/P6000FT -RA BR OVC002 04/03 A2953 RMK AO2 SFC VIS 1 1/4 P0000 T00390033
KLBE - Latrobe/Westmorl, Pennsylvania, USA
Distance from station: SSW 52 mi
Updated: Dec 14 2019 5:15 am
Light Rain, Overcast  
Light Rain, Overcast  
   Wind: Calm
Wind: Calm
Temperature: 44.6°F
Dew Point: 44.6°F
Humidity: 100%
Barometer: 29.51 inHg
Clouds: Overcast
Visibility: 4 mi
Cloud details: Few Clouds 1900 ft,
Mostly Cloudy 3200 ft,
Overcast 3700 ft
KLBE 141015Z AUTO 00000KT 4SM -RA FEW019 BKN032 OVC037 07/07 A2951 RMK AO2
KBTP - Butler Co., Pennsylvania, USA
Distance from station: WSW 52 mi
Updated: Dec 14 2019 4:56 am
Light Rain, Mist, Overcast  
Light Rain, Mist, Overcast  
   Wind: NNE 8.1 mph
Wind: NNE 8.1 mph
Temperature: 39.2°F
Wind Chill: 33.8°F
Dew Point: 39.2°F
Humidity: 100%
Barometer: 29.54 inHg
Clouds: Overcast
Visibility: 4 mi
Cloud details: Overcast 300 ft
KBTP 140956Z AUTO 02007KT 4SM -RA BR OVC003 04/04 A2954 RMK AO2 SLP016 P0001 T00390039
KUCP - New Castle Muni, Pennsylvania, USA
Distance from station: W 75 mi
Updated: Dec 14 2019 5:11 am
Light Rain, Mist, Overcast  
Light Rain, Mist, Overcast  
   Wind: North 4.6 mph
Wind: North 4.6 mph
Temperature: 37.4°F
Wind Chill: 33.8°F
Dew Point: 37.4°F
Humidity: 100%
Barometer: 29.56 inHg
Clouds: Overcast
Visibility: 2 mi
Cloud details: Overcast 400 ft
KUCP 141011Z AUTO 35004KT 2 1/2SM -RA BR OVC004 03/03 A2956 RMK AO2 P0002
KFKL - Franklin, Pennsylvania, USA
Distance from station: WNW 54 mi
Updated: Dec 14 2019 5:23 am
Light Rain, Fog, Overcast  
Light Rain, Fog, Overcast  
   Wind: NNE 5.8 mph
Wind: NNE 5.8 mph
Temperature: 35.6°F
Wind Chill: 30.2°F
Dew Point: 35.6°F
Humidity: 100%
Barometer: 29.55 inHg
Clouds: Overcast
Visibility: 1 mi
Cloud details: Overcast 200 ft
KFKL 141023Z AUTO 02005KT 1/2SM -RA FG OVC002 02/02 A2955 RMK AO2 P0002 FZRANO
KAOO - Altoona, Pennsylvania, USA
Distance from station: SE 57 mi
Updated: Dec 14 2019 5:01 am
, Mist, Overcast  
, Mist, Overcast  
   Wind: SSW 3.5 mph
Wind: SSW 3.5 mph
Temperature: 33.8°F
Wind Chill: 30.2°F
Dew Point: 30.2°F
Humidity: 87%
Barometer: 29.58 inHg
Clouds: Overcast
Visibility: 2 mi
Cloud details: Partly Cloudy 300 ft,
Overcast 700 ft
KAOO 141001Z AUTO 21003KT 2SM UP BR SCT003 OVC007 01/M01 A2958 RMK AO2 P0001 T00061011
KUNV - State College, Pennsylvania, USA
Distance from station: E 61 mi
Updated: Dec 14 2019 5:15 am
Light Rain, Overcast  
Light Rain, Overcast  
   Wind: Calm
Wind: Calm
Temperature: 33.8°F
Dew Point: 33.8°F
Humidity: 100%
Barometer: 29.58 inHg
Clouds: Overcast
Visibility: 3 mi
Cloud details: Overcast 100 ft
KUNV 141015Z AUTO 00000KT 3/4SM -RA OVC001 01/01 A2958 RMK AO2 P0001 T00050005
KBFD - Bradford, Pennsylvania, USA
Distance from station: NNE 62 mi
Updated: Dec 14 2019 5:17 am
Light Rain, Mist, Overcast  
Light Rain, Mist, Overcast  
   Wind: Calm
Wind: Calm
Temperature: 37.4°F
Dew Point: 35.6°F
Humidity: 93%
Barometer: 29.55 inHg
Clouds: Overcast
Visibility: 1 mi
Cloud details: Overcast 400 ft
KBFD 141017Z AUTO 00000KT 1 3/4SM -RA BR OVC004 03/02 A2955 RMK AO2 P0001 T00280017

Script developed by  Saratoga-weather.org Adapted for the template by  Weerstation Leuven

Equipment we use:

Weather-station
Davis VP2

Weather-program
Cumulus

Weather-server
Dell Inspiron 3521

Provider
Host On A Rope

Davis VP2

Cumulus

Dell Inspiron 3521

Host On A Rope